Time;durP1;ratioP1;P1;durP2;ratioP2;P2;SDS_P1;SDS_P2;PMS_P1;PMS_P2;Temp;Humidity;BMP_temperature;BMP_pressure;BME280_temperature;BME280_humidity;BME280_pressure;Samples;Min_cycle;Max_cycle;Signal;HPM_P1;HPM_P2
2021/06/25 00:02:27;;;;;;;9.43;6.50;;;17.00;90.80;;;;;;4976744;28;20027;-88
2021/06/25 00:04:52;;;;;;;8.88;6.80;;;16.90;90.70;;;;;;5022479;28;20038;-88
2021/06/25 00:07:18;;;;;;;10.50;6.38;;;16.90;90.60;;;;;;4959734;28;20036;-87
2021/06/25 00:09:44;;;;;;;8.48;6.57;;;16.90;90.90;;;;;;5074357;28;20021;-88
2021/06/25 00:12:10;;;;;;;7.95;6.65;;;16.80;90.70;;;;;;5046122;28;20028;-88
2021/06/25 00:14:36;;;;;;;9.07;7.28;;;16.80;90.80;;;;;;4987866;28;20024;-88
2021/06/25 00:17:03;;;;;;;10.30;7.13;;;16.70;90.90;;;;;;5018985;28;20036;-88
2021/06/25 00:19:29;;;;;;;8.27;6.85;;;16.70;90.90;;;;;;5050511;28;20023;-89
2021/06/25 00:21:56;;;;;;;7.32;6.60;;;16.70;90.80;;;;;;5055159;28;20027;-88
2021/06/25 00:24:22;;;;;;;8.70;6.90;;;16.60;90.70;;;;;;4959488;28;20042;-89
2021/06/25 00:26:50;;;;;;;7.88;6.78;;;16.50;90.80;;;;;;4975173;28;20019;-89
2021/06/25 00:29:16;;;;;;;7.95;7.15;;;16.50;90.80;;;;;;4958063;28;20048;-88
2021/06/25 00:31:42;;;;;;;8.25;7.43;;;16.50;90.80;;;;;;5045595;28;20037;-88
2021/06/25 00:34:07;;;;;;;12.23;8.02;;;16.50;90.80;;;;;;5031452;28;20029;-88
2021/06/25 00:36:33;;;;;;;9.50;6.88;;;16.40;91.00;;;;;;5040373;28;20041;-89
2021/06/25 00:38:59;;;;;;;8.52;6.93;;;16.40;90.90;;;;;;5042522;28;20030;-88
2021/06/25 00:41:24;;;;;;;10.07;7.50;;;16.40;91.00;;;;;;4976450;28;20033;-88
2021/06/25 00:43:50;;;;;;;9.82;7.55;;;16.30;91.20;;;;;;4979028;28;20577;-88
2021/06/25 00:46:16;;;;;;;10.13;8.00;;;16.30;91.10;;;;;;5059932;28;20028;-88
2021/06/25 00:48:41;;;;;;;8.65;7.72;;;16.30;91.20;;;;;;5053979;28;20083;-88
2021/06/25 00:51:07;;;;;;;9.73;8.25;;;16.20;91.00;;;;;;5015397;28;20545;-88
2021/06/25 00:53:33;;;;;;;10.07;8.48;;;16.20;91.00;;;;;;5042785;28;20041;-87
2021/06/25 00:55:59;;;;;;;11.00;9.30;;;16.20;91.00;;;;;;5043382;28;20030;-89
2021/06/25 00:58:25;;;;;;;11.43;10.23;;;16.10;91.20;;;;;;4976421;28;20035;-88
2021/06/25 01:00:51;;;;;;;12.07;10.88;;;16.10;91.20;;;;;;4977690;28;20058;-88
2021/06/25 01:03:17;;;;;;;12.23;10.93;;;16.10;91.30;;;;;;4961631;28;20026;-89
2021/06/25 01:05:43;;;;;;;13.30;11.95;;;16.00;91.20;;;;;;4977100;28;20054;-88
2021/06/25 01:08:10;;;;;;;14.52;12.10;;;16.00;91.10;;;;;;4990342;28;20013;-88
2021/06/25 01:10:37;;;;;;;13.65;11.85;;;16.00;91.10;;;;;;5064737;28;20022;-88
2021/06/25 01:13:04;;;;;;;14.15;12.65;;;16.00;91.20;;;;;;5029486;28;20468;-89
2021/06/25 01:15:30;;;;;;;14.30;11.98;;;15.90;91.30;;;;;;5044617;28;20030;-88
2021/06/25 01:17:56;;;;;;;14.57;13.00;;;15.90;91.10;;;;;;5042450;28;20045;-88
2021/06/25 01:20:29;;;;;;;14.02;12.52;;;15.90;91.10;;;;;;5041283;28;20031;-88
2021/06/25 01:22:55;;;;;;;14.95;13.27;;;15.80;91.10;;;;;;5043256;28;20125;-88
2021/06/25 01:25:24;;;;;;;16.17;13.93;;;15.80;91.40;;;;;;4982176;28;20034;-88
2021/06/25 01:27:53;;;;;;;14.43;12.95;;;15.80;91.20;;;;;;5058842;28;20026;-88
2021/06/25 01:30:39;;;;;;;14.18;12.77;;;15.70;91.40;;;;;;5033279;28;20045;-89
2021/06/25 01:33:07;;;;;;;15.02;13.43;;;15.70;91.40;;;;;;5033271;28;20028;-89
2021/06/25 01:35:34;;;;;;;14.45;12.93;;;15.70;91.40;;;;;;5036634;28;20032;-90
2021/06/25 01:38:01;;;;;;;14.95;12.93;;;15.60;91.50;;;;;;5020015;28;20084;-90
2021/06/25 01:40:27;;;;;;;14.40;12.57;;;15.60;91.50;;;;;;5019418;28;20056;-90
2021/06/25 01:42:52;;;;;;;16.05;14.15;;;15.60;91.40;;;;;;5018530;28;20079;-89
2021/06/25 01:45:21;;;;;;;15.48;13.68;;;15.50;91.50;;;;;;5052074;28;20087;-89
2021/06/25 01:47:48;;;;;;;14.68;13.15;;;15.50;91.50;;;;;;5034496;28;20465;-90
2021/06/25 01:50:23;;;;;;;16.48;13.65;;;15.40;91.50;;;;;;5051087;28;20473;-91
2021/06/25 01:52:59;;;;;;;16.30;14.35;;;15.40;91.60;;;;;;5052993;28;20025;-89
2021/06/25 01:55:26;;;;;;;16.75;14.52;;;15.30;91.70;;;;;;5040077;28;20087;-89
2021/06/25 01:57:52;;;;;;;15.93;14.20;;;15.30;91.70;;;;;;5041670;28;20036;-90
2021/06/25 02:00:19;;;;;;;15.73;13.45;;;15.30;91.80;;;;;;5043598;28;20036;-89
2021/06/25 02:02:45;;;;;;;15.77;14.07;;;15.30;92.00;;;;;;5057349;28;20191;-90
2021/06/25 02:05:13;;;;;;;18.10;14.30;;;15.20;91.40;;;;;;5045757;28;20048;-89
2021/06/25 02:07:39;;;;;;;16.58;14.82;;;15.20;91.60;;;;;;5064515;28;20021;-89
2021/06/25 02:10:08;;;;;;;16.55;14.95;;;15.20;91.60;;;;;;5045025;28;20027;-88
2021/06/25 02:12:35;;;;;;;16.20;14.50;;;15.10;91.50;;;;;;5040377;28;20017;-89
2021/06/25 02:15:02;;;;;;;17.10;15.27;;;15.10;91.70;;;;;;5024166;28;20033;-90
2021/06/25 02:17:28;;;;;;;16.65;14.95;;;15.00;91.60;;;;;;5052824;28;20491;-89
2021/06/25 02:19:53;;;;;;;15.90;13.95;;;15.00;91.70;;;;;;5052178;28;20036;-89
2021/06/25 02:22:19;;;;;;;17.25;15.35;;;15.00;91.60;;;;;;5002886;28;20075;-89
2021/06/25 02:24:45;;;;;;;17.48;14.98;;;15.00;91.90;;;;;;5046725;28;20071;-89
2021/06/25 02:27:10;;;;;;;17.05;15.23;;;14.90;92.10;;;;;;5036750;28;20349;-89
2021/06/25 02:29:37;;;;;;;17.02;15.27;;;14.90;92.00;;;;;;5053640;28;20060;-89
2021/06/25 02:32:03;;;;;;;16.90;15.10;;;14.90;91.90;;;;;;5052367;28;20049;-89
2021/06/25 02:34:29;;;;;;;15.45;13.88;;;14.80;91.60;;;;;;5034887;28;20029;-90
2021/06/25 02:36:54;;;;;;;16.75;12.95;;;14.90;91.20;;;;;;5052570;28;20095;-89
2021/06/25 02:39:20;;;;;;;14.80;12.88;;;14.80;91.40;;;;;;5018295;28;20048;-89
2021/06/25 02:41:46;;;;;;;14.50;12.90;;;14.70;91.80;;;;;;5034919;28;20030;-88
2021/06/25 02:44:12;;;;;;;14.27;12.75;;;14.70;91.80;;;;;;5017934;28;20031;-90
2021/06/25 02:46:38;;;;;;;14.65;13.15;;;14.70;91.30;;;;;;5052441;28;20388;-89
2021/06/25 02:49:04;;;;;;;15.18;13.57;;;14.60;91.20;;;;;;5034153;28;20029;-89
2021/06/25 02:51:29;;;;;;;14.75;13.20;;;14.60;91.50;;;;;;5052310;28;20438;-89
2021/06/25 02:53:55;;;;;;;13.82;11.85;;;14.50;91.10;;;;;;5001754;28;20116;-89
2021/06/25 02:56:21;;;;;;;15.48;12.70;;;14.50;91.10;;;;;;5002121;28;20053;-89
2021/06/25 02:58:46;;;;;;;15.60;11.80;;;14.40;91.30;;;;;;5012872;28;20033;-90
2021/06/25 03:01:12;;;;;;;13.50;12.10;;;14.40;91.30;;;;;;5061723;28;20040;-88
2021/06/25 03:03:38;;;;;;;14.48;12.93;;;14.30;91.50;;;;;;5025050;28;20120;-89
2021/06/25 03:06:03;;;;;;;14.27;12.77;;;14.30;91.30;;;;;;5036459;28;20116;-89
2021/06/25 03:08:29;;;;;;;14.60;13.10;;;14.30;91.60;;;;;;5014899;28;20030;-89
2021/06/25 03:10:55;;;;;;;16.52;13.77;;;14.20;91.60;;;;;;5029625;28;20035;-88
2021/06/25 03:13:21;;;;;;;15.95;13.98;;;14.20;92.10;;;;;;5051779;28;20447;-89
2021/06/25 03:15:48;;;;;;;16.20;14.50;;;14.10;92.00;;;;;;5034468;28;20091;-89
2021/06/25 03:18:15;;;;;;;14.27;12.77;;;14.10;92.00;;;;;;5055984;28;20025;-90
2021/06/25 03:20:42;;;;;;;14.80;13.30;;;14.10;91.90;;;;;;5055788;28;20037;-89
2021/06/25 03:23:08;;;;;;;12.80;11.32;;;14.00;91.50;;;;;;5055713;28;20032;-89
2021/06/25 03:25:34;;;;;;;11.07;9.50;;;14.00;91.60;;;;;;5038128;28;20021;-89
2021/06/25 03:28:01;;;;;;;11.93;10.30;;;13.90;92.00;;;;;;5055443;28;20029;-89
2021/06/25 03:30:26;;;;;;;11.48;10.27;;;13.90;91.80;;;;;;5037371;28;20111;-89
2021/06/25 03:32:52;;;;;;;12.02;10.82;;;13.80;91.90;;;;;;5037805;28;20485;-88
2021/06/25 03:35:18;;;;;;;13.85;11.30;;;13.80;92.10;;;;;;5017973;28;20033;-89
2021/06/25 03:37:43;;;;;;;12.32;10.45;;;13.80;92.10;;;;;;5020628;28;20477;-89
2021/06/25 03:40:11;;;;;;;11.68;10.48;;;13.80;92.00;;;;;;5020312;28;20029;-88
2021/06/25 03:42:38;;;;;;;15.13;10.60;;;13.80;92.10;;;;;;5036059;28;20532;-90
2021/06/25 03:45:06;;;;;;;12.43;9.50;;;13.70;92.20;;;;;;5036270;28;20491;-89
2021/06/25 03:47:32;;;;;;;15.05;11.38;;;13.70;92.20;;;;;;5036477;28;20036;-89
2021/06/25 03:49:57;;;;;;;13.43;11.63;;;13.60;92.30;;;;;;5054284;28;20033;-89
2021/06/25 03:52:23;;;;;;;14.82;12.60;;;13.70;92.40;;;;;;5003970;28;20484;-89
2021/06/25 03:54:48;;;;;;;14.57;12.32;;;13.60;92.60;;;;;;5037493;28;20384;-89
2021/06/25 03:57:14;;;;;;;15.07;12.75;;;13.70;92.80;;;;;;5020613;28;20029;-89
2021/06/25 03:59:40;;;;;;;16.52;13.82;;;13.70;92.80;;;;;;5037100;28;20037;-88
2021/06/25 04:02:10;;;;;;;14.52;12.27;;;13.70;92.90;;;;;;5054872;28;20040;-89
2021/06/25 04:04:39;;;;;;;12.90;11.48;;;13.70;92.90;;;;;;5055046;28;20052;-89
2021/06/25 04:07:06;;;;;;;13.00;11.40;;;13.70;92.90;;;;;;5041047;28;20063;-89
2021/06/25 04:09:33;;;;;;;14.32;11.20;;;13.60;92.50;;;;;;5055194;28;20045;-89
2021/06/25 04:11:59;;;;;;;12.45;11.15;;;13.60;92.60;;;;;;5042837;28;20150;-88
2021/06/25 04:14:24;;;;;;;14.20;11.57;;;13.50;92.80;;;;;;5003277;28;20107;-89
2021/06/25 04:16:50;;;;;;;17.63;12.00;;;13.50;93.00;;;;;;5024371;28;20083;-89
2021/06/25 04:19:16;;;;;;;17.23;13.43;;;13.50;93.20;;;;;;5036768;28;20033;-88
2021/06/25 04:21:42;;;;;;;14.88;13.25;;;13.60;93.30;;;;;;5053456;28;20060;-88
2021/06/25 04:24:08;;;;;;;18.30;14.52;;;13.60;93.60;;;;;;5037435;28;20493;-89
2021/06/25 04:26:35;;;;;;;16.95;14.65;;;13.60;93.60;;;;;;5052922;28;20036;-89
2021/06/25 04:29:03;;;;;;;16.67;14.90;;;13.60;93.80;;;;;;5052297;28;20451;-88
2021/06/25 04:31:29;;;;;;;18.80;15.38;;;13.60;94.00;;;;;;5018131;28;20136;-89
2021/06/25 04:33:55;;;;;;;19.40;15.95;;;13.60;93.80;;;;;;5022789;28;20359;-89
2021/06/25 04:36:20;;;;;;;17.27;15.43;;;13.70;94.00;;;;;;5018081;28;20091;-89
2021/06/25 04:38:46;;;;;;;19.33;16.23;;;13.70;94.00;;;;;;5030975;28;20021;-88
2021/06/25 04:41:12;;;;;;;21.10;16.92;;;13.70;94.20;;;;;;5044853;28;20108;-88
2021/06/25 04:43:37;;;;;;;21.42;15.88;;;13.70;94.20;;;;;;5035226;28;20159;-89
2021/06/25 04:46:03;;;;;;;17.45;14.38;;;13.70;94.30;;;;;;5015663;28;20036;-88
2021/06/25 04:48:29;;;;;;;18.55;16.17;;;13.80;94.20;;;;;;5050862;28;20025;-88
2021/06/25 04:50:55;;;;;;;19.90;16.45;;;13.80;94.20;;;;;;5005364;28;20036;-89
2021/06/25 04:53:20;;;;;;;19.83;16.30;;;13.90;94.30;;;;;;5035187;28;20025;-89
2021/06/25 04:55:46;;;;;;;19.17;15.98;;;13.90;94.30;;;;;;5021880;28;20032;-89
2021/06/25 04:58:17;;;;;;;18.25;16.35;;;13.90;94.30;;;;;;5035975;28;20134;-88
2021/06/25 05:00:43;;;;;;;;;;;14.00;94.20;;;;;;5054303;28;20028;-89
2021/06/25 05:03:10;;;;;;;22.55;16.80;;;14.00;94.40;;;;;;5025115;28;20266;-89
2021/06/25 05:05:37;;;;;;;18.90;16.63;;;14.00;94.30;;;;;;5047152;28;20067;-89
2021/06/25 05:08:04;;;;;;;19.48;17.05;;;14.00;94.20;;;;;;5053123;28;20188;-89
2021/06/25 05:10:30;;;;;;;19.23;17.23;;;14.10;94.30;;;;;;5017653;28;20025;-90
2021/06/25 05:12:56;;;;;;;21.25;17.23;;;14.10;94.20;;;;;;5044633;28;20465;-88
2021/06/25 05:15:22;;;;;;;22.77;18.38;;;14.10;94.30;;;;;;5047192;28;20138;-88
2021/06/25 05:17:50;;;;;;;20.40;17.42;;;14.10;94.40;;;;;;5035229;28;20040;-88
2021/06/25 05:20:20;;;;;;;20.95;16.67;;;14.10;94.30;;;;;;5054039;28;20100;-88
2021/06/25 05:22:46;;;;;;;21.88;18.05;;;14.20;94.50;;;;;;5053034;28;20068;-89
2021/06/25 05:25:12;;;;;;;21.92;17.83;;;14.20;94.30;;;;;;5021651;28;20034;-89
2021/06/25 05:27:38;;;;;;;21.95;18.77;;;14.20;94.20;;;;;;5046459;28;20041;-89
2021/06/25 05:30:05;;;;;;;21.67;17.75;;;14.20;94.20;;;;;;5052599;28;20407;-89
2021/06/25 05:32:32;;;;;;;20.67;17.80;;;14.20;94.10;;;;;;5053396;28;20052;-89
2021/06/25 05:34:57;;;;;;;21.85;17.75;;;14.20;94.20;;;;;;5040092;28;20029;-89
2021/06/25 05:37:23;;;;;;;24.55;17.85;;;14.30;94.10;;;;;;5041720;28;20029;-89
2021/06/25 05:39:49;;;;;;;22.20;18.55;;;14.30;94.10;;;;;;5033501;28;20044;-88
2021/06/25 05:42:16;;;;;;;21.02;17.52;;;14.30;94.10;;;;;;5044082;28;20108;-88
2021/06/25 05:44:41;;;;;;;20.25;17.40;;;14.30;94.10;;;;;;5047247;28;20029;-88
2021/06/25 05:47:07;;;;;;;21.25;18.13;;;14.40;94.30;;;;;;5015896;28;20028;-88
2021/06/25 05:49:33;;;;;;;20.15;17.27;;;14.40;94.20;;;;;;4999320;28;20064;-87
2021/06/25 05:51:59;;;;;;;22.77;17.25;;;14.40;94.20;;;;;;5034559;28;20067;-88
2021/06/25 05:54:25;;;;;;;21.73;16.98;;;14.40;94.10;;;;;;5053674;28;20025;-88
2021/06/25 05:56:51;;;;;;;20.92;17.20;;;14.50;94.10;;;;;;5018114;28;20028;-88
2021/06/25 05:59:17;;;;;;;22.42;17.35;;;14.50;94.10;;;;;;5053279;28;20096;-88
2021/06/25 06:01:42;;;;;;;21.23;17.25;;;14.60;94.00;;;;;;5034006;28;20087;-88
2021/06/25 06:04:08;;;;;;;20.17;16.15;;;14.50;93.80;;;;;;5052267;28;20033;-88
2021/06/25 06:06:34;;;;;;;23.65;17.33;;;14.60;93.80;;;;;;5034414;28;20083;-89
2021/06/25 06:09:02;;;;;;;18.05;14.52;;;14.60;93.70;;;;;;5031922;28;20084;-88
2021/06/25 06:11:27;;;;;;;21.35;15.45;;;14.60;93.50;;;;;;5035627;28;20025;-87
2021/06/25 06:13:53;;;;;;;17.85;15.20;;;14.60;93.40;;;;;;5033494;28;20025;-89
2021/06/25 06:16:19;;;;;;;18.05;14.40;;;14.60;93.30;;;;;;5016941;28;20025;-87
2021/06/25 06:18:48;;;;;;;16.30;13.43;;;14.70;93.40;;;;;;5045946;28;20030;-88
2021/06/25 06:21:16;;;;;;;15.18;13.52;;;14.70;93.10;;;;;;5033862;28;20091;-88
2021/06/25 06:32:01;;;;;;;13.90;11.23;;;14.80;92.30;;;;;;5042401;28;20088;-88
2021/06/25 06:34:31;;;;;;;12.57;10.85;;;14.80;92.20;;;;;;5046307;28;20494;-90
2021/06/25 06:36:57;;;;;;;14.98;11.95;;;14.80;92.00;;;;;;5033339;28;20056;-88
2021/06/25 06:39:23;;;;;;;12.63;11.32;;;14.80;91.40;;;;;;5036896;28;20061;-87
2021/06/25 06:41:49;;;;;;;14.85;11.90;;;14.90;91.80;;;;;;5004600;28;20029;-90
2021/06/25 06:44:14;;;;;;;16.95;13.02;;;14.90;91.50;;;;;;5068885;28;20139;-89
2021/06/25 06:46:40;;;;;;;15.15;12.13;;;14.90;91.50;;;;;;5030679;28;20036;-88
2021/06/25 06:49:06;;;;;;;17.55;12.48;;;15.00;91.50;;;;;;5052515;28;20024;-88
2021/06/25 06:51:32;;;;;;;15.75;13.05;;;15.00;91.50;;;;;;5036786;28;20076;-89
2021/06/25 06:54:00;;;;;;;17.63;13.57;;;15.10;91.40;;;;;;5036523;28;20025;-89
2021/06/25 06:56:26;;;;;;;15.35;13.27;;;15.10;91.20;;;;;;5022214;28;20029;-89
2021/06/25 06:58:53;;;;;;;17.55;14.38;;;15.20;91.30;;;;;;5036582;28;20393;-90
2021/06/25 07:01:20;;;;;;;17.52;13.70;;;15.30;91.40;;;;;;5028334;28;20057;-89
2021/06/25 07:03:46;;;;;;;20.00;15.02;;;15.40;91.70;;;;;;5055022;28;20048;-89
2021/06/25 07:06:13;;;;;;;23.60;15.70;;;15.50;91.30;;;;;;5016731;28;20033;-88
2021/06/25 07:08:39;;;;;;;21.92;16.38;;;15.50;91.10;;;;;;5038394;28;20040;-88
2021/06/25 07:11:04;;;;;;;18.30;14.82;;;15.50;91.20;;;;;;5019681;28;20024;-87
2021/06/25 07:13:30;;;;;;;19.05;15.18;;;15.60;91.20;;;;;;5038084;28;20503;-88
2021/06/25 07:15:55;;;;;;;21.77;14.82;;;15.70;91.20;;;;;;5035199;28;20548;-88
2021/06/25 07:18:22;;;;;;;20.77;15.65;;;15.80;91.20;;;;;;5055947;28;20090;-88
2021/06/25 07:20:48;;;;;;;19.00;15.55;;;15.90;91.20;;;;;;5037825;28;20029;-87
2021/06/25 07:23:13;;;;;;;18.70;15.88;;;15.90;91.00;;;;;;5038386;28;20396;-88
2021/06/25 07:25:39;;;;;;;19.65;15.75;;;16.00;90.90;;;;;;5054851;28;20035;-88
2021/06/25 07:28:06;;;;;;;19.10;15.02;;;16.10;90.90;;;;;;5038899;28;20025;-88
2021/06/25 07:30:32;;;;;;;19.92;16.48;;;16.10;90.90;;;;;;5054861;28;20136;-88
2021/06/25 07:32:58;;;;;;;22.13;16.33;;;16.20;90.80;;;;;;5038424;28;20048;-88
2021/06/25 07:35:24;;;;;;;20.00;16.52;;;16.20;90.80;;;;;;5038712;28;20465;-88
2021/06/25 07:37:50;;;;;;;21.70;17.55;;;16.30;90.90;;;;;;5055975;28;20025;-88
2021/06/25 07:40:16;;;;;;;21.63;17.40;;;16.40;90.70;;;;;;5056660;28;20033;-88
2021/06/25 07:42:43;;;;;;;22.13;17.77;;;16.40;90.60;;;;;;5041077;28;20036;-88
2021/06/25 07:45:09;;;;;;;21.48;16.42;;;16.50;90.50;;;;;;5055022;28;20495;-89
2021/06/25 07:47:42;;;;;;;22.60;16.90;;;16.60;90.40;;;;;;5071233;28;20035;-86
2021/06/25 07:50:13;;;;;;;19.95;16.45;;;16.60;90.50;;;;;;5055091;28;20469;-88
2021/06/25 07:52:39;;;;;;;21.40;16.90;;;16.70;90.40;;;;;;5055708;28;20028;-89
2021/06/25 07:55:06;;;;;;;21.38;16.70;;;16.70;90.30;;;;;;5036906;28;20024;-88
2021/06/25 07:57:31;;;;;;;20.23;16.77;;;16.80;90.30;;;;;;5037855;28;20021;-89
2021/06/25 07:59:57;;;;;;;20.88;17.20;;;16.80;90.30;;;;;;5037974;28;20099;-88
2021/06/25 08:02:23;;;;;;;18.92;16.92;;;16.80;90.30;;;;;;5037083;28;20021;-89
2021/06/25 08:04:49;;;;;;;22.75;17.77;;;16.90;90.40;;;;;;5027900;28;20025;-88
2021/06/25 08:07:16;;;;;;;24.25;21.02;;;16.90;90.40;;;;;;5037592;28;20060;-89
2021/06/25 08:09:42;;;;;;;23.40;18.42;;;16.90;90.40;;;;;;5051394;28;20068;-89
2021/06/25 08:12:13;;;;;;;23.00;19.70;;;16.90;90.40;;;;;;5055545;28;20104;-88
2021/06/25 08:14:40;;;;;;;24.83;20.80;;;16.90;90.50;;;;;;5032993;28;20035;-88
2021/06/25 08:17:06;;;;;;;28.30;21.05;;;16.90;90.60;;;;;;5020249;28;20028;-89
2021/06/25 08:19:33;;;;;;;29.00;22.98;;;16.90;90.40;;;;;;5052445;28;20025;-89
2021/06/25 08:21:58;;;;;;;29.98;22.52;;;16.90;90.50;;;;;;5043878;28;20025;-89
2021/06/25 08:24:24;;;;;;;29.27;23.48;;;16.90;90.40;;;;;;5043654;28;20116;-89
2021/06/25 08:26:51;;;;;;;27.88;22.65;;;16.90;90.50;;;;;;5043381;28;20021;-89
2021/06/25 08:29:18;;;;;;;28.02;22.58;;;16.90;90.60;;;;;;5040004;28;20036;-89
2021/06/25 08:31:43;;;;;;;30.33;21.83;;;16.90;90.70;;;;;;5037055;28;20045;-89
2021/06/25 08:34:12;;;;;;;31.00;24.58;;;16.90;90.90;;;;;;5037023;28;20104;-88
2021/06/25 08:36:38;;;;;;;28.38;23.33;;;16.90;90.80;;;;;;5023564;28;20039;-88
2021/06/25 08:39:05;;;;;;;29.02;22.63;;;16.90;90.80;;;;;;5019351;28;20070;-89
2021/06/25 08:41:34;;;;;;;26.10;22.20;;;16.90;90.90;;;;;;5015068;28;20036;-88
2021/06/25 08:44:00;;;;;;;29.10;21.92;;;16.90;91.00;;;;;;5018765;28;20113;-88
2021/06/25 08:46:30;;;;;;;28.20;23.63;;;16.90;91.00;;;;;;5047010;28;20085;-88
2021/06/25 08:48:58;;;;;;;31.55;23.92;;;16.90;91.10;;;;;;5037020;28;20419;-88
2021/06/25 08:51:25;;;;;;;26.40;22.67;;;16.90;91.20;;;;;;5036924;28;20017;-88
2021/06/25 08:53:51;;;;;;;27.63;23.10;;;16.90;91.20;;;;;;5030212;28;20067;-88
2021/06/25 08:56:17;;;;;;;26.50;21.63;;;17.00;91.30;;;;;;5054794;28;20029;-88
2021/06/25 08:58:43;;;;;;;28.88;23.55;;;17.00;91.20;;;;;;5053442;28;20079;-88
2021/06/25 09:01:10;;;;;;;30.85;25.25;;;17.00;91.10;;;;;;5036799;28;20513;-87
2021/06/25 09:03:39;;;;;;;31.45;22.65;;;17.00;91.10;;;;;;5033728;28;20047;-87
2021/06/25 09:06:09;;;;;;;26.55;21.52;;;17.00;91.00;;;;;;5036288;28;20052;-89
2021/06/25 09:08:35;;;;;;;27.55;20.38;;;17.10;91.20;;;;;;5050602;28;20078;-88
2021/06/25 09:11:15;;;;;;;25.85;21.60;;;17.10;91.30;;;;;;5048207;28;20033;-88
2021/06/25 09:13:41;;;;;;;28.88;21.45;;;17.10;91.30;;;;;;5035304;28;20025;-88
2021/06/25 09:16:27;;;;;;;25.88;20.08;;;17.10;91.20;;;;;;5033906;28;20036;-88
2021/06/25 09:18:57;;;;;;;29.98;21.60;;;17.20;91.20;;;;;;5036479;28;20021;-89
2021/06/25 09:21:22;;;;;;;26.75;20.63;;;17.20;91.30;;;;;;5034746;28;20134;-89
2021/06/25 09:23:48;;;;;;;27.40;20.20;;;17.20;91.40;;;;;;5041128;28;20068;-89
2021/06/25 09:26:15;;;;;;;22.88;19.00;;;17.20;91.30;;;;;;5045606;28;20149;-89
2021/06/25 09:28:43;;;;;;;28.40;21.38;;;17.20;91.40;;;;;;5058740;28;20096;-89
2021/06/25 09:31:18;;;;;;;28.33;22.15;;;17.20;91.20;;;;;;5059400;28;20049;-89
2021/06/25 09:33:44;;;;;;;29.42;21.05;;;17.20;90.80;;;;;;5038914;28;20025;-89
2021/06/25 09:36:39;;;;;;;28.98;21.65;;;17.20;90.70;;;;;;5059537;28;20028;-91
2021/06/25 09:39:14;;;;;;;24.42;19.98;;;17.20;90.80;;;;;;5039720;28;20044;-89
2021/06/25 09:41:43;;;;;;;24.40;19.25;;;17.30;91.00;;;;;;5053172;28;20025;-90
2021/06/25 09:44:19;;;;;;;25.17;19.75;;;17.30;91.20;;;;;;5035421;28;20024;-87
2021/06/25 09:46:49;;;;;;;26.02;19.90;;;17.40;91.20;;;;;;5056862;28;20075;-92
2021/06/25 09:49:22;;;;;;;25.08;20.08;;;17.40;91.00;;;;;;5054222;28;20346;-90
2021/06/25 09:51:57;;;;;;;24.38;18.77;;;17.50;90.80;;;;;;5036006;28;20056;-89
2021/06/25 09:54:23;;;;;;;25.88;19.40;;;17.50;90.90;;;;;;5022337;28;20067;-90
2021/06/25 09:56:54;;;;;;;26.05;18.60;;;17.50;90.20;;;;;;5053484;28;20526;-89
2021/06/25 10:02:30;;;;;;;24.23;19.00;;;17.60;89.90;;;;;;5032452;28;20037;-88
2021/06/25 10:05:15;;;;;;;22.63;18.30;;;17.60;88.90;;;;;;5035263;28;20063;-89
2021/06/25 10:07:41;;;;;;;25.45;19.33;;;17.70;89.60;;;;;;5035619;28;20423;-89
2021/06/25 10:10:12;;;;;;;24.55;19.00;;;17.80;89.40;;;;;;5035878;28;20036;-89
2021/06/25 10:12:43;;;;;;;21.30;17.15;;;17.80;89.00;;;;;;5034442;28;20037;-90
2021/06/25 10:15:09;;;;;;;23.25;18.15;;;17.90;89.10;;;;;;5047611;28;20064;-88
2021/06/25 10:17:36;;;;;;;23.08;19.15;;;18.00;88.30;;;;;;5019325;28;20021;-90
2021/06/25 10:20:10;;;;;;;25.17;19.00;;;18.00;88.30;;;;;;5018971;28;20036;-88
2021/06/25 10:22:38;;;;;;;24.88;19.98;;;18.10;88.00;;;;;;5018755;28;20481;-93
2021/06/25 10:25:07;;;;;;;21.70;17.75;;;18.10;87.90;;;;;;5038853;28;20055;-89
2021/06/25 10:27:35;;;;;;;22.77;19.42;;;18.20;88.10;;;;;;5053180;28;20350;-92
2021/06/25 10:30:00;;;;;;;23.40;18.48;;;18.20;88.10;;;;;;5033419;28;20045;-90
2021/06/25 10:32:26;;;;;;;23.10;18.70;;;18.20;88.30;;;;;;5019191;28;20028;-93
2021/06/25 10:34:52;;;;;;;24.70;20.45;;;18.20;88.30;;;;;;5031566;28;20462;-92
2021/06/25 10:37:23;;;;;;;22.35;18.23;;;18.30;88.80;;;;;;5036036;28;20024;-92
2021/06/25 10:39:50;;;;;;;21.15;17.63;;;18.30;88.60;;;;;;5061195;28;20492;-92
2021/06/25 10:42:16;;;;;;;21.88;17.75;;;18.30;88.10;;;;;;5050408;28;20025;-92
2021/06/25 10:44:56;;;;;;;20.08;17.52;;;18.30;88.00;;;;;;5015071;28;20029;-91
2021/06/25 10:47:30;;;;;;;19.20;16.67;;;18.30;88.00;;;;;;5045716;28;20029;-91
2021/06/25 10:49:58;;;;;;;20.55;17.50;;;18.30;88.60;;;;;;5019167;28;20033;-90
2021/06/25 10:52:41;;;;;;;20.13;16.00;;;18.30;88.20;;;;;;5026886;28;20389;-89
2021/06/25 10:55:18;;;;;;;21.55;17.65;;;18.40;88.50;;;;;;5017458;28;20051;-90
2021/06/25 10:57:50;;;;;;;20.70;18.45;;;18.40;88.40;;;;;;5034451;28;20029;-90
2021/06/25 11:00:51;;;;;;;24.73;18.50;;;18.40;87.40;;;;;;5052379;28;20033;-89
2021/06/25 11:03:49;;;;;;;21.83;17.27;;;18.50;87.40;;;;;;5024680;28;20036;-90
2021/06/25 11:06:33;;;;;;;20.13;16.73;;;18.50;87.70;;;;;;5003561;28;20050;-92
2021/06/25 11:09:06;;;;;;;22.20;18.05;;;18.60;87.60;;;;;;5051713;28;20032;-92
2021/06/25 11:11:32;;;;;;;17.92;16.02;;;18.60;86.90;;;;;;5046846;28;20013;-95
2021/06/25 11:13:59;;;;;;;17.42;15.55;;;18.60;87.10;;;;;;5036403;28;20075;-96
2021/06/25 11:16:24;;;;;;;18.52;14.98;;;18.60;87.30;;;;;;5036339;28;20025;-95
2021/06/25 11:18:53;;;;;;;19.50;16.65;;;18.70;87.60;;;;;;5019631;28;20035;-94
2021/06/25 11:21:19;;;;;;;22.35;18.20;;;18.70;87.20;;;;;;5037749;28;20401;-94
2021/06/25 11:23:46;;;;;;;18.70;16.27;;;18.70;87.10;;;;;;5052949;28;20025;-96
2021/06/25 11:26:17;;;;;;;18.85;16.23;;;18.80;87.50;;;;;;5033328;28;20473;-95
2021/06/25 11:28:44;;;;;;;21.83;17.00;;;18.80;87.70;;;;;;5036378;28;20032;-92
2021/06/25 11:31:17;;;;;;;21.85;17.27;;;18.90;87.30;;;;;;5000649;28;20091;-90
2021/06/25 11:33:50;;;;;;;17.75;15.52;;;19.00;87.10;;;;;;5038872;28;20064;-90
2021/06/25 11:36:39;;;;;;;17.45;14.93;;;19.00;87.20;;;;;;5033555;28;20025;-90
2021/06/25 11:39:17;;;;;;;14.95;12.93;;;19.10;87.20;;;;;;5036140;28;20051;-91
2021/06/25 11:42:06;;;;;;;16.33;14.32;;;19.20;88.30;;;;;;5036820;28;20105;-91
2021/06/25 11:44:39;;;;;;;18.48;15.05;;;19.30;87.90;;;;;;5055271;28;20481;-90
2021/06/25 11:47:18;;;;;;;18.25;15.63;;;19.30;88.00;;;;;;5038955;28;20083;-90
2021/06/25 11:50:00;;;;;;;17.63;15.73;;;19.40;87.70;;;;;;5056056;28;20035;-91
2021/06/25 11:52:31;;;;;;;17.23;14.75;;;19.50;87.40;;;;;;5038707;28;20032;-92
2021/06/25 11:54:58;;;;;;;;;;;19.50;87.40;;;;;;5036460;28;20152;-88
2021/06/25 11:57:36;;;;;;;14.25;12.63;;;19.60;87.70;;;;;;5055551;28;19948;-91
2021/06/25 12:00:08;;;;;;;16.95;12.95;;;19.60;87.60;;;;;;5051276;28;20029;-92
2021/06/25 12:02:55;;;;;;;15.90;13.73;;;19.70;87.90;;;;;;5056037;28;20047;-92
2021/06/25 12:05:25;;;;;;;16.80;14.55;;;19.80;88.00;;;;;;5056089;28;20017;-92
2021/06/25 12:08:09;;;;;;;15.27;13.60;;;19.90;87.80;;;;;;5054780;28;20017;-92
2021/06/25 12:10:35;;;;;;;17.98;15.20;;;20.00;87.90;;;;;;5038096;28;20380;-92
2021/06/25 12:13:02;;;;;;;15.35;13.63;;;20.00;86.70;;;;;;5040963;28;20060;-92
2021/06/25 12:15:29;;;;;;;15.23;12.70;;;20.10;84.80;;;;;;5039299;28;20465;-92
2021/06/25 12:17:57;;;;;;;15.20;12.18;;;20.10;82.60;;;;;;5055312;28;20433;-92
2021/06/25 12:20:29;;;;;;;12.95;10.70;;;20.20;82.00;;;;;;5038321;28;20033;-92
2021/06/25 12:23:01;;;;;;;12.90;9.68;;;20.20;82.10;;;;;;5038660;28;20484;-93
2021/06/25 12:25:28;;;;;;;14.00;10.57;;;20.20;82.90;;;;;;5044578;28;20025;-92
2021/06/25 12:27:54;;;;;;;12.73;10.43;;;20.20;82.40;;;;;;5055640;28;20017;-92
2021/06/25 12:30:20;;;;;;;13.70;10.27;;;20.30;82.30;;;;;;5037617;28;20551;-92
2021/06/25 12:32:59;;;;;;;13.98;12.15;;;20.30;82.50;;;;;;5054808;28;20056;-92
2021/06/25 12:35:32;;;;;;;14.05;10.75;;;20.40;81.90;;;;;;5022402;28;20116;-91
2021/06/25 12:37:58;;;;;;;12.45;9.68;;;20.40;81.70;;;;;;5043197;28;20012;-91
2021/06/25 12:40:36;;;;;;;12.15;9.65;;;20.40;82.10;;;;;;5074719;28;20025;-92
2021/06/25 12:43:02;;;;;;;12.88;10.10;;;20.40;80.90;;;;;;5067197;28;20088;-92
2021/06/25 12:45:37;;;;;;;11.93;9.27;;;20.50;80.20;;;;;;5022417;28;20029;-92